Time;durP1;ratioP1;P1;durP2;ratioP2;P2;SDS_P1;SDS_P2;PMS_P1;PMS_P2;Temp;Humidity;BMP_temperature;BMP_pressure;BME280_temperature;BME280_humidity;BME280_pressure;Samples;Min_cycle;Max_cycle;Signal;HPM_P1;HPM_P2
2023/04/11 00:00:37;;;;;;;12.90;10.27;;;10.30;99.90;;;;;;2074504;28;20049;-74
2023/04/11 00:01:37;;;;;;;13.68;10.75;;;10.30;99.90;;;;;;2081231;28;20060;-74
2023/04/11 00:02:38;;;;;;;14.20;11.35;;;10.30;99.90;;;;;;2085124;28;20032;-73
2023/04/11 00:03:38;;;;;;;14.50;11.55;;;10.30;99.90;;;;;;2076319;28;20037;-73
2023/04/11 00:04:39;;;;;;;14.27;11.20;;;10.30;99.90;;;;;;2082695;28;20079;-73
2023/04/11 00:05:39;;;;;;;14.15;11.02;;;10.30;99.90;;;;;;2082829;28;20040;-73
2023/04/11 00:06:40;;;;;;;13.07;10.43;;;10.30;99.90;;;;;;2084791;28;20094;-73
2023/04/11 00:07:40;;;;;;;13.80;10.27;;;10.30;99.90;;;;;;2082393;28;20037;-74
2023/04/11 00:08:43;;;;;;;12.63;10.20;;;10.20;99.90;;;;;;2082284;28;20024;-72
2023/04/11 00:09:43;;;;;;;12.35;9.98;;;10.20;99.90;;;;;;2075223;28;20147;-72
2023/04/11 00:10:44;;;;;;;13.45;9.88;;;10.30;99.90;;;;;;2084431;28;20182;-74
2023/04/11 00:11:44;;;;;;;14.02;10.40;;;10.20;99.90;;;;;;2083218;28;20037;-72
2023/04/11 00:12:45;;;;;;;13.32;10.05;;;10.20;99.90;;;;;;2083413;28;20041;-72
2023/04/11 00:13:46;;;;;;;11.80;9.82;;;10.20;99.90;;;;;;2083148;28;20040;-72
2023/04/11 00:14:47;;;;;;;12.63;10.32;;;10.20;99.90;;;;;;2071913;28;20030;-72
2023/04/11 00:15:48;;;;;;;12.75;10.00;;;10.20;99.90;;;;;;2074290;28;20052;-72
2023/04/11 00:16:52;;;;;;;12.50;9.77;;;10.20;99.90;;;;;;2084872;28;20482;-72
2023/04/11 00:17:53;;;;;;;12.93;9.30;;;10.20;99.90;;;;;;2083007;28;20411;-72
2023/04/11 00:18:55;;;;;;;11.27;9.35;;;10.20;99.90;;;;;;2077098;28;20045;-73
2023/04/11 00:20:06;;;;;;;12.15;9.55;;;10.20;99.90;;;;;;2066788;28;20116;-72
2023/04/11 00:21:07;;;;;;;14.38;10.07;;;10.20;99.90;;;;;;2078642;28;20112;-72
2023/04/11 00:22:09;;;;;;;12.45;9.73;;;10.20;99.90;;;;;;2084385;28;20397;-73
2023/04/11 00:23:09;;;;;;;12.38;9.50;;;10.20;99.90;;;;;;2084462;28;20248;-73
2023/04/11 00:24:10;;;;;;;12.68;9.57;;;10.20;99.90;;;;;;2087307;28;20554;-73
2023/04/11 00:25:11;;;;;;;12.77;9.48;;;10.20;99.90;;;;;;2083349;28;20013;-72
2023/04/11 00:26:11;;;;;;;12.63;10.25;;;10.20;99.90;;;;;;2084926;28;20420;-73
2023/04/11 00:27:13;;;;;;;11.20;9.23;;;10.20;99.90;;;;;;2080089;28;20029;-72
2023/04/11 00:28:14;;;;;;;11.90;9.55;;;10.20;99.90;;;;;;2082190;28;20052;-72
2023/04/11 00:29:14;;;;;;;14.77;10.52;;;10.20;99.90;;;;;;2082321;28;20471;-72
2023/04/11 00:30:15;;;;;;;12.15;9.55;;;10.20;99.90;;;;;;2082854;28;20025;-72
2023/04/11 00:31:17;;;;;;;13.57;10.15;;;10.20;99.90;;;;;;2082190;28;20025;-72
2023/04/11 00:32:18;;;;;;;15.13;10.52;;;10.20;99.90;;;;;;2075993;28;20029;-72
2023/04/11 00:33:18;;;;;;;12.27;9.82;;;10.10;99.90;;;;;;2074110;28;20733;-72
2023/04/11 00:34:19;;;;;;;13.05;9.57;;;10.20;99.90;;;;;;2086133;28;20332;-72
2023/04/11 00:35:20;;;;;;;11.63;9.50;;;10.20;99.90;;;;;;2073943;28;20029;-72
2023/04/11 00:36:20;;;;;;;13.93;9.75;;;10.20;99.90;;;;;;2082293;28;20587;-72
2023/04/11 00:37:21;;;;;;;12.82;10.05;;;10.20;99.90;;;;;;2084942;28;20131;-73
2023/04/11 00:38:21;;;;;;;13.32;9.85;;;10.20;99.90;;;;;;2080382;28;20029;-73
2023/04/11 00:39:25;;;;;;;13.60;10.20;;;10.30;99.90;;;;;;2082243;28;20108;-73
2023/04/11 00:40:27;;;;;;;12.15;9.10;;;10.20;99.90;;;;;;2082296;28;20518;-73
2023/04/11 00:41:29;;;;;;;11.57;9.10;;;10.30;99.90;;;;;;2083302;28;20025;-73
2023/04/11 00:42:30;;;;;;;10.73;8.90;;;10.30;99.90;;;;;;2084451;28;20028;-72
2023/04/11 00:43:31;;;;;;;11.65;8.80;;;10.30;99.90;;;;;;2082155;28;20351;-73
2023/04/11 00:44:32;;;;;;;10.77;8.65;;;10.30;99.90;;;;;;2086840;28;20055;-73
2023/04/11 00:45:33;;;;;;;11.60;9.10;;;10.20;99.90;;;;;;2087193;28;20056;-72
2023/04/11 00:46:34;;;;;;;11.75;9.18;;;10.20;99.90;;;;;;2074823;28;20029;-73
2023/04/11 00:47:35;;;;;;;12.43;10.18;;;10.20;99.90;;;;;;2084102;28;20029;-72
2023/04/11 00:48:36;;;;;;;12.32;9.68;;;10.20;99.90;;;;;;2082172;28;20106;-72
2023/04/11 00:49:37;;;;;;;12.15;9.50;;;10.30;99.90;;;;;;2082278;28;20504;-72
2023/04/11 00:50:40;;;;;;;11.52;9.23;;;10.30;99.90;;;;;;2082888;28;20074;-72
2023/04/11 00:51:41;;;;;;;12.18;9.00;;;10.20;99.90;;;;;;2084902;28;20097;-72
2023/04/11 00:52:45;;;;;;;12.50;9.30;;;10.20;99.90;;;;;;2080269;28;20037;-72
2023/04/11 00:53:46;;;;;;;12.23;9.73;;;10.30;99.90;;;;;;2084146;28;20036;-72
2023/04/11 00:54:47;;;;;;;12.15;9.60;;;10.30;99.90;;;;;;2082026;28;20033;-71
2023/04/11 00:55:48;;;;;;;12.10;9.70;;;10.30;99.90;;;;;;2073916;28;20099;-72
2023/04/11 00:56:51;;;;;;;12.55;9.80;;;10.30;99.90;;;;;;2077112;28;20109;-72
2023/04/11 00:57:53;;;;;;;12.25;9.75;;;10.30;99.90;;;;;;2082121;28;20056;-72
2023/04/11 00:58:54;;;;;;;11.55;9.50;;;10.30;99.90;;;;;;2084046;28;20036;-73
2023/04/11 00:59:57;;;;;;;11.75;9.18;;;10.30;99.90;;;;;;2073853;28;20041;-73
2023/04/11 01:00:57;;;;;;;11.15;9.07;;;10.30;99.90;;;;;;2069050;28;20519;-73
2023/04/11 01:01:59;;;;;;;11.63;9.10;;;10.30;99.90;;;;;;2081935;28;20052;-73
2023/04/11 01:03:00;;;;;;;12.32;9.57;;;10.30;99.90;;;;;;2074298;28;20404;-73
2023/04/11 01:04:01;;;;;;;11.75;9.40;;;10.30;99.90;;;;;;2075938;28;20033;-72
2023/04/11 01:05:04;;;;;;;11.38;9.10;;;10.30;99.90;;;;;;2082059;28;20049;-72
2023/04/11 01:06:11;;;;;;;11.13;8.75;;;10.30;99.90;;;;;;2082148;28;20228;-71
2023/04/11 01:07:12;;;;;;;11.70;9.07;;;10.30;99.90;;;;;;2082789;28;20216;-72
2023/04/11 01:08:14;;;;;;;11.07;9.30;;;10.30;99.90;;;;;;2082232;28;20482;-72
2023/04/11 01:09:15;;;;;;;11.23;9.10;;;10.30;99.90;;;;;;2079207;28;20041;-73
2023/04/11 01:10:17;;;;;;;12.32;9.30;;;10.30;99.90;;;;;;2079132;28;20115;-72
2023/04/11 01:11:19;;;;;;;11.00;9.20;;;10.30;99.90;;;;;;2081213;28;20084;-72
2023/04/11 01:12:20;;;;;;;10.88;9.18;;;10.30;99.90;;;;;;2083666;28;20033;-74
2023/04/11 01:13:21;;;;;;;11.48;9.20;;;10.30;99.90;;;;;;2084423;28;20032;-73
2023/04/11 01:14:24;;;;;;;11.05;8.88;;;10.30;99.90;;;;;;2067514;28;20022;-73
2023/04/11 01:15:25;;;;;;;12.50;9.32;;;10.30;99.90;;;;;;2071102;28;20193;-72
2023/04/11 01:16:25;;;;;;;11.05;9.40;;;10.30;99.90;;;;;;2073523;28;20435;-73
2023/04/11 01:17:26;;;;;;;11.85;9.13;;;10.30;99.90;;;;;;2082201;28;20021;-74
2023/04/11 01:18:27;;;;;;;11.43;9.18;;;10.30;99.90;;;;;;2084764;28;20116;-74
2023/04/11 01:19:29;;;;;;;11.23;9.30;;;10.30;99.90;;;;;;2082569;28;20079;-75
2023/04/11 01:20:30;;;;;;;12.70;9.55;;;10.30;99.90;;;;;;2073787;28;20033;-75
2023/04/11 01:21:31;;;;;;;12.68;9.50;;;10.30;99.90;;;;;;2073782;28;20242;-74
2023/04/11 01:22:33;;;;;;;11.68;9.13;;;10.30;99.90;;;;;;2073380;28;20077;-75
2023/04/11 01:23:35;;;;;;;11.60;9.23;;;10.30;99.90;;;;;;2073984;28;20034;-75
2023/04/11 01:24:36;;;;;;;13.05;10.15;;;10.40;99.90;;;;;;2082614;28;20058;-75
2023/04/11 01:25:36;;;;;;;11.68;9.70;;;10.40;99.90;;;;;;2083702;28;20024;-75
2023/04/11 01:26:37;;;;;;;11.48;9.25;;;10.40;99.90;;;;;;2081960;28;20025;-75
2023/04/11 01:27:37;;;;;;;12.32;9.63;;;10.30;99.90;;;;;;2082124;28;20075;-75
2023/04/11 01:28:38;;;;;;;11.60;9.18;;;10.40;99.90;;;;;;2073840;28;20032;-74
2023/04/11 01:29:39;;;;;;;12.07;9.35;;;10.40;99.90;;;;;;2075711;28;20033;-74
2023/04/11 01:30:40;;;;;;;10.63;9.00;;;10.40;99.90;;;;;;2072978;28;20444;-74
2023/04/11 01:31:40;;;;;;;12.80;9.50;;;10.40;99.90;;;;;;2073788;28;20110;-73
2023/04/11 01:32:41;;;;;;;10.43;9.00;;;10.40;99.90;;;;;;2081962;28;20040;-74
2023/04/11 01:33:42;;;;;;;11.40;8.80;;;10.40;99.90;;;;;;2083754;28;20111;-74
2023/04/11 01:34:45;;;;;;;10.07;8.63;;;10.40;99.90;;;;;;2081720;28;20104;-74
2023/04/11 01:35:47;;;;;;;12.65;9.55;;;10.40;99.90;;;;;;2082351;28;20029;-73
2023/04/11 01:36:47;;;;;;;10.45;9.10;;;10.30;99.90;;;;;;2081875;28;20033;-75
2023/04/11 01:37:48;;;;;;;10.90;8.85;;;10.40;99.90;;;;;;2083711;28;20043;-74
2023/04/11 01:38:49;;;;;;;9.82;8.43;;;10.30;99.90;;;;;;2081639;28;20171;-76
2023/04/11 01:39:50;;;;;;;10.88;8.52;;;10.30;99.90;;;;;;2081748;28;20045;-73
2023/04/11 01:40:51;;;;;;;11.88;9.15;;;10.30;99.90;;;;;;2082387;28;20408;-76
2023/04/11 01:41:53;;;;;;;10.80;8.85;;;10.30;99.90;;;;;;2083858;28;20028;-75
2023/04/11 01:42:54;;;;;;;11.57;9.13;;;10.30;99.90;;;;;;2081986;28;20029;-73
2023/04/11 01:43:55;;;;;;;10.85;8.70;;;10.30;99.90;;;;;;2082842;28;20037;-75
2023/04/11 01:44:56;;;;;;;10.65;9.10;;;10.20;99.90;;;;;;2080796;28;20029;-75
2023/04/11 01:45:57;;;;;;;11.43;9.27;;;10.20;99.90;;;;;;2079424;28;20094;-75
2023/04/11 01:46:58;;;;;;;11.70;9.57;;;10.20;99.90;;;;;;2084419;28;20079;-74
2023/04/11 01:47:59;;;;;;;12.00;8.77;;;10.20;99.90;;;;;;2081888;28;20609;-75
2023/04/11 01:49:02;;;;;;;11.10;8.65;;;10.20;99.90;;;;;;2073430;28;20067;-75
2023/04/11 01:50:04;;;;;;;10.00;8.25;;;10.20;99.90;;;;;;2081603;28;20441;-76
2023/04/11 01:51:06;;;;;;;9.98;8.60;;;10.20;99.90;;;;;;2082456;28;20033;-75
2023/04/11 01:52:06;;;;;;;10.25;8.55;;;10.10;99.90;;;;;;2084528;28;20431;-74
2023/04/11 01:53:07;;;;;;;10.88;8.45;;;10.10;99.90;;;;;;2073485;28;20062;-75
2023/04/11 01:54:07;;;;;;;10.82;8.90;;;10.10;99.90;;;;;;2073469;28;20424;-75
2023/04/11 01:55:08;;;;;;;10.85;8.85;;;10.10;99.90;;;;;;2077718;28;20166;-74
2023/04/11 01:56:11;;;;;;;10.45;8.30;;;10.10;99.90;;;;;;2071656;28;20064;-75
2023/04/11 01:57:11;;;;;;;11.50;9.50;;;10.00;99.90;;;;;;2073574;28;20017;-74
2023/04/11 01:58:12;;;;;;;13.20;10.15;;;10.00;99.90;;;;;;2081689;28;20184;-76
2023/04/11 01:59:13;;;;;;;11.95;9.68;;;10.10;99.90;;;;;;2081678;28;20126;-75
2023/04/11 02:00:14;;;;;;;11.65;9.18;;;10.10;99.90;;;;;;2075180;28;20021;-72
2023/04/11 02:01:19;;;;;;;12.32;9.65;;;10.10;99.90;;;;;;2079203;28;20403;-75
2023/04/11 02:02:20;;;;;;;12.90;10.07;;;10.10;99.90;;;;;;2087074;28;20025;-73
2023/04/11 02:03:21;;;;;;;12.82;10.20;;;10.10;99.90;;;;;;2081652;28;20327;-73
2023/04/11 02:04:21;;;;;;;12.88;10.05;;;10.10;99.90;;;;;;2073462;28;20045;-73
2023/04/11 02:05:22;;;;;;;12.85;9.65;;;10.10;99.90;;;;;;2065510;28;20041;-73
2023/04/11 02:06:23;;;;;;;11.25;9.38;;;10.10;99.90;;;;;;2072538;28;20544;-73
2023/04/11 02:07:24;;;;;;;12.10;9.50;;;10.10;99.90;;;;;;2083196;28;20039;-72
2023/04/11 02:08:25;;;;;;;11.65;9.48;;;10.10;99.90;;;;;;2081324;28;20439;-73
2023/04/11 02:09:26;;;;;;;11.88;9.15;;;10.10;99.90;;;;;;2079535;28;20028;-72
2023/04/11 02:10:26;;;;;;;11.10;8.73;;;10.10;99.90;;;;;;2086120;28;20508;-72
2023/04/11 02:11:27;;;;;;;10.77;8.80;;;10.10;99.90;;;;;;2075394;28;20033;-73
2023/04/11 02:12:28;;;;;;;10.95;8.63;;;10.10;99.90;;;;;;2078732;28;20040;-72
2023/04/11 02:13:28;;;;;;;10.57;8.80;;;10.10;99.90;;;;;;2081220;28;20113;-72
2023/04/11 02:14:41;;;;;;;11.43;8.82;;;10.10;99.90;;;;;;2073356;28;20029;-72
2023/04/11 02:15:42;;;;;;;9.73;8.52;;;10.10;99.90;;;;;;2074830;28;20056;-72
2023/04/11 02:16:53;;;;;;;10.15;8.10;;;10.00;99.90;;;;;;2081657;28;20029;-72
2023/04/11 02:17:54;;;;;;;10.77;8.65;;;10.10;99.90;;;;;;2081576;28;20511;-72
2023/04/11 02:18:55;;;;;;;10.75;8.63;;;10.10;99.90;;;;;;2083542;28;20057;-73
2023/04/11 02:19:56;;;;;;;11.57;9.00;;;10.10;99.90;;;;;;2081430;28;20013;-72
2023/04/11 02:20:57;;;;;;;10.10;8.43;;;10.00;99.90;;;;;;2082133;28;20483;-72
2023/04/11 02:21:57;;;;;;;11.02;8.55;;;10.10;99.90;;;;;;2081672;28;20029;-72
2023/04/11 02:22:59;;;;;;;11.40;8.75;;;10.10;99.90;;;;;;2083509;28;20408;-72
2023/04/11 02:24:00;;;;;;;12.88;10.13;;;10.10;99.90;;;;;;2079018;28;20032;-72
2023/04/11 02:25:00;;;;;;;11.90;9.30;;;10.10;99.90;;;;;;2081175;28;20076;-72
2023/04/11 02:26:04;;;;;;;11.98;9.30;;;10.10;99.90;;;;;;2073648;28;20413;-73
2023/04/11 02:27:04;;;;;;;13.25;9.95;;;10.10;99.90;;;;;;2081622;28;20036;-72
2023/04/11 02:28:05;;;;;;;12.80;9.70;;;10.10;99.90;;;;;;2081595;28;20064;-72
2023/04/11 02:29:06;;;;;;;12.30;9.52;;;10.10;99.90;;;;;;2075104;28;20061;-72
2023/04/11 02:30:06;;;;;;;12.43;9.10;;;10.10;99.90;;;;;;2081762;28;20108;-72
2023/04/11 02:31:07;;;;;;;12.07;8.98;;;10.10;99.90;;;;;;2074315;28;20029;-71
2023/04/11 02:32:08;;;;;;;14.20;9.85;;;10.10;99.90;;;;;;2077766;28;20026;-72
2023/04/11 02:33:09;;;;;;;14.00;9.88;;;10.10;99.90;;;;;;2074694;28;20052;-72
2023/04/11 02:34:09;;;;;;;13.10;9.60;;;10.10;99.90;;;;;;2081505;28;20510;-72
2023/04/11 02:35:10;;;;;;;12.88;9.40;;;10.10;99.90;;;;;;2073316;28;20575;-71
2023/04/11 02:36:13;;;;;;;11.20;8.82;;;10.20;99.90;;;;;;2073354;28;20061;-72
2023/04/11 02:37:14;;;;;;;11.65;8.85;;;10.20;99.90;;;;;;2081787;28;20557;-72
2023/04/11 02:38:14;;;;;;;11.23;8.63;;;10.20;99.90;;;;;;2079407;28;20029;-72
2023/04/11 02:39:15;;;;;;;11.80;8.20;;;10.20;99.90;;;;;;2081316;28;20037;-72
2023/04/11 02:40:16;;;;;;;11.02;8.70;;;10.20;99.90;;;;;;2081475;28;20452;-71
2023/04/11 02:41:16;;;;;;;11.60;8.25;;;10.30;99.90;;;;;;2070984;28;20029;-71
2023/04/11 02:42:17;;;;;;;11.00;8.88;;;10.30;99.90;;;;;;2076592;28;20068;-72
2023/04/11 02:43:17;;;;;;;10.27;8.35;;;10.30;99.90;;;;;;2075044;28;20029;-72
2023/04/11 02:44:19;;;;;;;10.55;8.15;;;10.30;99.90;;;;;;2074952;28;20461;-72
2023/04/11 02:45:20;;;;;;;10.13;8.10;;;10.40;99.90;;;;;;2075194;28;20029;-73
2023/04/11 02:46:21;;;;;;;10.32;8.23;;;10.30;99.90;;;;;;2083296;28;20029;-72
2023/04/11 02:47:22;;;;;;;11.45;8.93;;;10.40;99.90;;;;;;2083262;28;20043;-72
2023/04/11 02:48:22;;;;;;;9.48;7.90;;;10.40;99.90;;;;;;2076576;28;20159;-72
2023/04/11 02:49:24;;;;;;;10.13;8.23;;;10.40;99.90;;;;;;2083070;28;20463;-72
2023/04/11 02:50:25;;;;;;;10.98;8.45;;;10.40;99.90;;;;;;2074912;28;20104;-72
2023/04/11 02:51:27;;;;;;;10.57;8.07;;;10.40;99.90;;;;;;2077919;28;20056;-72
2023/04/11 02:52:27;;;;;;;11.90;8.95;;;10.40;99.90;;;;;;2076811;28;20060;-72
2023/04/11 02:53:28;;;;;;;11.02;8.73;;;10.50;99.90;;;;;;2087278;28;20497;-71
2023/04/11 02:54:29;;;;;;;11.15;8.45;;;10.50;99.90;;;;;;2087160;28;20051;-72
2023/04/11 02:55:33;;;;;;;10.98;8.73;;;10.40;99.90;;;;;;2083502;28;20035;-71
2023/04/11 02:56:37;;;;;;;10.95;8.38;;;10.40;99.90;;;;;;2091051;28;20060;-72
2023/04/11 02:57:38;;;;;;;11.57;8.30;;;10.40;99.90;;;;;;2085631;28;20071;-72
2023/04/11 02:58:42;;;;;;;10.38;8.38;;;10.50;99.90;;;;;;2084789;28;20037;-72
2023/04/11 02:59:43;;;;;;;9.90;8.30;;;10.40;99.90;;;;;;2082946;28;20040;-72
2023/04/11 03:00:44;;;;;;;12.35;8.70;;;10.40;99.90;;;;;;2074670;28;20116;-72
2023/04/11 03:01:45;;;;;;;10.77;8.50;;;10.40;99.90;;;;;;2083860;28;20029;-73
2023/04/11 03:02:45;;;;;;;10.45;8.13;;;10.40;99.90;;;;;;2077982;28;20396;-72
2023/04/11 03:03:46;;;;;;;11.40;8.07;;;10.40;99.90;;;;;;2074835;28;20052;-72
2023/04/11 03:04:48;;;;;;;9.95;7.93;;;10.40;99.90;;;;;;2083039;28;20535;-72
2023/04/11 03:05:51;;;;;;;10.65;7.97;;;10.40;99.90;;;;;;2082867;28;20451;-73
2023/04/11 03:06:56;;;;;;;10.48;7.65;;;10.40;99.90;;;;;;2084845;28;20335;-72
2023/04/11 03:07:57;;;;;;;10.88;8.00;;;10.40;99.90;;;;;;2085618;28;20044;-72
2023/04/11 03:08:59;;;;;;;11.63;8.73;;;10.40;99.90;;;;;;2082216;28;20043;-72
2023/04/11 03:10:00;;;;;;;11.82;8.57;;;10.40;99.90;;;;;;2080958;28;20037;-74
2023/04/11 03:11:02;;;;;;;12.68;8.98;;;10.40;99.90;;;;;;2083000;28;20623;-73
2023/04/11 03:12:02;;;;;;;12.45;8.68;;;10.40;99.90;;;;;;2082975;28;20032;-73
2023/04/11 03:13:03;;;;;;;10.70;8.45;;;10.40;99.90;;;;;;2085013;28;20443;-73
2023/04/11 03:14:04;;;;;;;13.82;8.70;;;10.50;99.90;;;;;;2083000;28;20036;-74
2023/04/11 03:15:05;;;;;;;11.10;8.35;;;10.40;99.90;;;;;;2074578;28;20103;-73
2023/04/11 03:16:06;;;;;;;14.15;9.10;;;10.50;99.90;;;;;;2062039;28;20089;-73
2023/04/11 03:17:07;;;;;;;11.95;8.73;;;10.40;99.90;;;;;;2066695;28;20033;-72
2023/04/11 03:18:08;;;;;;;10.95;8.35;;;10.50;99.90;;;;;;2076553;28;20111;-73
2023/04/11 03:19:11;;;;;;;12.98;8.88;;;10.40;99.90;;;;;;2074950;28;20232;-75
2023/04/11 03:20:12;;;;;;;9.98;8.05;;;10.50;99.90;;;;;;2076360;28;20488;-74
2023/04/11 03:21:16;;;;;;;11.48;8.65;;;10.50;99.90;;;;;;2077663;28;20414;-74
2023/04/11 03:22:19;;;;;;;12.98;8.77;;;10.50;99.90;;;;;;2073340;28;20026;-75
2023/04/11 03:23:21;;;;;;;10.40;8.40;;;10.50;99.90;;;;;;2068731;28;20045;-74
2023/04/11 03:24:22;;;;;;;11.57;8.82;;;10.50;99.90;;;;;;2067394;28;20140;-73
2023/04/11 03:25:23;;;;;;;11.75;8.55;;;10.50;99.90;;;;;;2066650;28;20034;-73
2023/04/11 03:26:28;;;;;;;11.20;8.68;;;10.50;99.90;;;;;;2074830;28;20071;-73
2023/04/11 03:27:32;;;;;;;14.63;9.23;;;10.50;99.90;;;;;;2072107;28;20037;-73
2023/04/11 03:28:36;;;;;;;13.10;9.20;;;10.50;99.90;;;;;;2075056;28;20112;-73
2023/04/11 03:29:37;;;;;;;15.93;9.45;;;10.50;99.90;;;;;;2074820;28;20037;-72
2023/04/11 03:30:45;;;;;;;12.85;9.02;;;10.50;99.90;;;;;;2073457;28;20727;-73
2023/04/11 03:31:48;;;;;;;13.73;9.43;;;10.50;99.90;;;;;;2080277;28;20020;-72
2023/04/11 03:32:49;;;;;;;13.18;9.43;;;10.50;99.90;;;;;;2082749;28;20252;-73
2023/04/11 03:33:50;;;;;;;12.85;9.48;;;10.50;99.90;;;;;;2074299;28;20133;-72
2023/04/11 03:34:52;;;;;;;14.48;9.50;;;10.50;99.90;;;;;;2083844;28;20037;-73
2023/04/11 03:35:53;;;;;;;14.95;9.15;;;10.50;99.90;;;;;;2084745;28;20500;-73
2023/04/11 03:36:53;;;;;;;12.60;8.80;;;10.50;99.90;;;;;;2074448;28;20037;-73
2023/04/11 03:37:54;;;;;;;13.13;8.68;;;10.50;99.90;;;;;;2079929;28;20025;-73
2023/04/11 03:38:55;;;;;;;13.23;8.85;;;10.50;99.90;;;;;;2074485;28;20520;-73
2023/04/11 03:39:56;;;;;;;14.40;9.18;;;10.50;99.90;;;;;;2084728;28;20021;-72
2023/04/11 03:40:56;;;;;;;11.45;8.60;;;10.50;99.90;;;;;;2080717;28;22693;-72
2023/04/11 03:42:00;;;;;;;15.57;9.30;;;10.50;99.90;;;;;;2080786;28;20033;-73
2023/04/11 03:43:02;;;;;;;12.63;9.25;;;10.50;99.90;;;;;;2079415;28;20036;-72
2023/04/11 03:44:05;;;;;;;13.68;9.65;;;10.50;99.90;;;;;;2076791;28;20037;-73
2023/04/11 03:45:06;;;;;;;13.60;9.23;;;10.60;99.90;;;;;;2074521;28;21199;-73
2023/04/11 03:46:07;;;;;;;14.05;9.10;;;10.60;99.90;;;;;;2074311;28;20113;-73
2023/04/11 03:47:15;;;;;;;15.25;9.30;;;10.50;99.90;;;;;;2079499;28;20033;-74
2023/04/11 03:48:17;;;;;;;11.85;8.98;;;10.50;99.90;;;;;;2074665;28;20608;-72
2023/04/11 03:49:23;;;;;;;12.77;9.20;;;10.50;99.90;;;;;;2075410;28;20104;-72
2023/04/11 03:50:28;;;;;;;13.55;9.77;;;10.50;99.90;;;;;;2075071;28;20590;-72
2023/04/11 03:51:32;;;;;;;11.57;8.90;;;10.60;99.90;;;;;;2074902;28;20049;-72
2023/04/11 03:52:37;;;;;;;12.25;9.32;;;10.50;99.90;;;;;;2076174;28;20037;-73
2023/04/11 03:53:43;;;;;;;12.35;9.00;;;10.60;99.90;;;;;;2076034;28;20546;-72
2023/04/11 03:55:13;;;;;;;11.48;8.88;;;10.50;99.90;;;;;;2077379;28;20503;-73
2023/04/11 03:56:13;;;;;;;11.43;8.85;;;10.60;99.90;;;;;;2082732;28;20017;-73
2023/04/11 03:57:14;;;;;;;10.75;8.05;;;10.50;99.90;;;;;;2082912;28;20102;-73
2023/04/11 03:58:15;;;;;;;11.38;8.52;;;10.60;99.90;;;;;;2084449;28;20059;-73
2023/04/11 03:59:16;;;;;;;12.23;9.02;;;10.50;99.90;;;;;;2082168;28;20028;-72
2023/04/11 04:00:31;;;;;;;12.55;9.20;;;10.50;99.90;;;;;;2076002;28;20481;-73
2023/04/11 04:01:38;;;;;;;12.00;9.70;;;10.50;99.90;;;;;;2077042;28;20036;-73
2023/04/11 04:02:39;;;;;;;12.15;9.15;;;10.50;99.90;;;;;;2077938;28;20041;-73
2023/04/11 04:03:41;;;;;;;12.30;9.25;;;10.50;99.90;;;;;;2088773;28;20098;-73
2023/04/11 04:04:53;;;;;;;12.30;9.40;;;10.50;99.90;;;;;;2090204;28;20040;-71
2023/04/11 04:06:06;;;;;;;11.60;9.32;;;10.50;99.90;;;;;;2074642;28;20313;-72
2023/04/11 04:07:08;;;;;;;13.00;9.40;;;10.60;99.90;;;;;;2082350;28;20033;-72
2023/04/11 04:08:12;;;;;;;14.82;10.55;;;10.60;99.90;;;;;;2082072;28;20072;-71
2023/04/11 04:09:19;;;;;;;12.55;9.23;;;10.50;99.90;;;;;;2069641;28;20029;-72
2023/04/11 04:10:24;;;;;;;13.05;10.30;;;10.50;99.90;;;;;;2079650;28;20380;-71
2023/04/11 04:11:27;;;;;;;14.85;11.43;;;10.50;99.90;;;;;;2076546;28;20030;-72
2023/04/11 04:12:29;;;;;;;12.68;9.90;;;10.50;99.90;;;;;;2076322;28;20037;-73
2023/04/11 04:13:41;;;;;;;14.80;10.65;;;10.50;99.90;;;;;;2079027;28;20078;-73
2023/04/11 04:14:48;;;;;;;13.90;10.90;;;10.50;99.90;;;;;;2079689;28;20059;-73
2023/04/11 04:15:51;;;;;;;14.00;10.50;;;10.40;99.90;;;;;;2074232;28;20449;-72
2023/04/11 04:16:55;;;;;;;13.85;10.40;;;10.40;99.90;;;;;;2074581;28;20025;-72
2023/04/11 04:17:57;;;;;;;15.13;10.50;;;10.40;99.90;;;;;;2068119;28;20514;-71
2023/04/11 04:19:10;;;;;;;13.60;10.70;;;10.40;99.90;;;;;;2073515;28;20028;-72
2023/04/11 04:20:11;;;;;;;16.30;11.23;;;10.40;99.90;;;;;;2084028;28;20107;-72
2023/04/11 04:21:14;;;;;;;12.93;10.10;;;10.40;99.90;;;;;;2084529;28;20443;-72
2023/04/11 04:22:16;;;;;;;13.65;10.80;;;10.40;99.90;;;;;;2082355;28;20423;-72
2023/04/11 04:23:22;;;;;;;12.75;10.15;;;10.40;99.90;;;;;;2082230;28;20029;-72
2023/04/11 04:24:36;;;;;;;;;;;10.40;99.90;;;;;;2082592;28;20583;-72
2023/04/11 04:25:50;;;;;;;14.85;10.20;;;10.40;99.90;;;;;;2073472;28;19913;-72
2023/04/11 04:26:59;;;;;;;14.80;10.65;;;10.40;99.90;;;;;;2082805;28;20032;-71
2023/04/11 04:28:29;;;;;;;13.90;10.32;;;10.40;99.90;;;;;;2073078;28;20102;-72
2023/04/11 04:29:37;;;;;;;13.50;10.32;;;10.40;99.90;;;;;;2082496;28;20025;-71
2023/04/11 04:30:39;;;;;;;13.80;10.50;;;10.40;99.90;;;;;;2082179;28;20581;-72
2023/04/11 04:31:49;;;;;;;13.85;9.80;;;10.40;99.90;;;;;;2076812;28;20025;-72
2023/04/11 04:32:53;;;;;;;13.10;9.75;;;10.40;99.90;;;;;;2089279;28;20040;-73
2023/04/11 04:33:57;;;;;;;12.75;10.18;;;10.40;99.90;;;;;;2087781;28;20414;-72
2023/04/11 04:35:00;;;;;;;13.38;10.10;;;10.50;99.90;;;;;;2082213;28;20419;-73
2023/04/11 04:36:11;;;;;;;29.85;10.77;;;10.40;99.90;;;;;;2082043;28;20458;-73
2023/04/11 04:37:21;;;;;;;32.30;10.60;;;10.40;99.90;;;;;;2081942;28;20374;-73
2023/04/11 04:38:27;;;;;;;19.27;10.93;;;10.40;99.90;;;;;;2096688;28;20179;-73
2023/04/11 04:39:32;;;;;;;39.28;12.13;;;10.40;99.90;;;;;;2095168;28;20032;-72
2023/04/11 04:40:38;;;;;;;15.73;11.50;;;10.40;99.90;;;;;;2087064;28;20033;-70
2023/04/11 04:41:40;;;;;;;17.70;11.63;;;10.40;99.90;;;;;;2086967;28;20483;-72
2023/04/11 04:42:41;;;;;;;15.45;11.10;;;10.40;99.90;;;;;;2082277;28;20052;-72
2023/04/11 04:43:42;;;;;;;14.95;10.85;;;10.30;99.90;;;;;;2084790;28;20496;-72
2023/04/11 04:44:56;;;;;;;14.00;10.77;;;10.40;99.90;;;;;;2079642;28;20461;-73
2023/04/11 04:45:57;;;;;;;13.38;10.45;;;10.40;99.90;;;;;;2075877;28;20035;-73
2023/04/11 04:47:03;;;;;;;13.95;10.98;;;10.30;99.90;;;;;;2072375;28;20195;-72
2023/04/11 04:48:04;;;;;;;14.25;10.90;;;10.30;99.90;;;;;;2085057;28;20502;-71
2023/04/11 04:49:06;;;;;;;13.23;10.38;;;10.30;99.90;;;;;;2084241;28;20079;-72
2023/04/11 04:50:09;;;;;;;15.63;11.75;;;10.30;99.90;;;;;;2081940;28;20119;-72
2023/04/11 04:51:10;;;;;;;16.48;11.63;;;10.30;99.90;;;;;;2084244;28;20028;-72
2023/04/11 04:52:12;;;;;;;14.80;11.10;;;10.20;99.90;;;;;;2082116;28;20064;-71
2023/04/11 04:53:13;;;;;;;15.52;11.10;;;10.20;99.90;;;;;;2074008;28;20029;-71
2023/04/11 04:54:19;;;;;;;14.07;10.77;;;10.20;99.90;;;;;;2073875;28;20024;-72
2023/04/11 04:55:20;;;;;;;16.15;11.35;;;10.20;99.90;;;;;;2075038;28;20473;-72
2023/04/11 04:56:22;;;;;;;13.55;10.60;;;10.10;99.90;;;;;;2082060;28;20033;-72
2023/04/11 04:57:27;;;;;;;14.43;10.68;;;10.10;99.90;;;;;;2074149;28;20033;-72
2023/04/11 04:58:28;;;;;;;14.55;10.75;;;10.10;99.90;;;;;;2072313;28;20324;-72
2023/04/11 04:59:33;;;;;;;14.05;10.93;;;10.10;99.90;;;;;;2073746;28;20092;-72
2023/04/11 05:00:42;;;;;;;14.52;10.88;;;10.10;99.90;;;;;;2082223;28;20036;-72
2023/04/11 05:01:52;;;;;;;13.83;10.70;;;10.10;99.90;;;;;;2082181;28;20052;-72
2023/04/11 05:02:59;;;;;;;14.93;10.73;;;10.00;99.90;;;;;;2082290;28;20424;-72
2023/04/11 05:04:04;;;;;;;15.77;11.45;;;10.00;99.90;;;;;;2082028;28;20033;-71
2023/04/11 05:05:25;;;;;;;14.93;10.70;;;10.00;99.90;;;;;;2086218;28;20036;-72
2023/04/11 05:06:33;;;;;;;15.25;11.15;;;10.00;99.90;;;;;;2081965;28;20024;-72
2023/04/11 05:07:35;;;;;;;14.02;10.90;;;9.90;99.90;;;;;;2081577;28;20025;-72
2023/04/11 05:08:36;;;;;;;16.65;11.10;;;9.90;99.90;;;;;;2073770;28;20059;-72
2023/04/11 05:09:39;;;;;;;13.88;10.57;;;9.90;99.90;;;;;;2067954;28;20300;-73
2023/04/11 05:10:52;;;;;;;15.00;11.40;;;9.90;99.90;;;;;;2073309;28;20034;-72
2023/04/11 05:11:52;;;;;;;14.43;10.98;;;9.90;99.90;;;;;;2074123;28;20550;-73
2023/04/11 05:12:55;;;;;;;13.80;10.60;;;9.80;99.90;;;;;;2074236;28;20026;-73
2023/04/11 05:13:56;;;;;;;13.50;10.43;;;9.90;99.90;;;;;;2073595;28;20032;-73
2023/04/11 05:14:57;;;;;;;15.20;11.20;;;9.80;99.90;;;;;;2079663;28;20072;-73
2023/04/11 05:15:59;;;;;;;13.20;10.70;;;9.80;99.90;;;;;;2071387;28;20080;-72
2023/04/11 05:17:01;;;;;;;14.07;10.82;;;9.80;99.90;;;;;;2062367;28;20030;-68
2023/04/11 05:18:03;;;;;;;13.57;10.95;;;9.80;99.90;;;;;;2073795;28;20131;-69
2023/04/11 05:19:06;;;;;;;13.73;10.70;;;9.80;99.90;;;;;;2081857;28;20033;-67
2023/04/11 05:20:10;;;;;;;13.10;10.35;;;9.80;99.90;;;;;;2082258;28;20033;-69
2023/04/11 05:21:14;;;;;;;14.82;10.95;;;9.80;99.90;;;;;;2082053;28;20317;-69